createdAt,value
2023-06-02T00:02:38.671Z,1.02
2023-06-02T00:05:41.272Z,1.15
2023-06-02T00:08:43.365Z,1.10
2023-06-02T00:11:45.312Z,1.13
2023-06-02T00:14:49.314Z,1.10
2023-06-02T00:17:52.573Z,1.35
2023-06-02T00:20:54.840Z,1.05
2023-06-02T00:23:56.796Z,1.20
2023-06-02T00:26:58.989Z,1.10
2023-06-02T00:30:00.897Z,1.35
2023-06-02T00:33:03.159Z,1.13
2023-06-02T00:36:05.434Z,1.13
2023-06-02T00:39:07.984Z,1.10
2023-06-02T00:42:11.277Z,1.23
2023-06-02T00:45:16.714Z,1.10
2023-06-02T00:48:18.628Z,1.30
2023-06-02T00:51:21.044Z,1.20
2023-06-02T00:54:22.983Z,1.23
2023-06-02T00:57:29.996Z,0.90
2023-06-02T01:00:38.528Z,1.33
2023-06-02T01:03:47.538Z,1.40
2023-06-02T01:06:51.150Z,1.30
2023-06-02T01:09:58.023Z,1.60
2023-06-02T01:13:00.215Z,1.25
2023-06-02T01:16:03.252Z,1.20
2023-06-02T01:19:14.419Z,1.30
2023-06-02T01:22:24.576Z,1.05
2023-06-02T01:25:28.376Z,1.10
2023-06-02T01:28:30.976Z,1.15
2023-06-02T01:31:48.001Z,1.20
2023-06-02T01:34:57.978Z,1.00
2023-06-02T01:38:01.508Z,1.05
2023-06-02T01:41:07.780Z,1.10
2023-06-02T01:44:11.141Z,1.10
2023-06-02T01:47:13.365Z,1.25
2023-06-02T01:50:15.314Z,1.20
2023-06-02T01:53:17.128Z,1.00
2023-06-02T01:56:19.000Z,1.08
2023-06-02T01:59:21.635Z,1.03
2023-06-02T02:02:23.597Z,1.10
2023-06-02T02:05:25.476Z,1.30
2023-06-02T02:08:27.268Z,1.13
2023-06-02T02:11:29.025Z,1.40
2023-06-02T02:14:31.964Z,1.08
2023-06-02T02:17:37.802Z,1.40
2023-06-02T02:20:43.369Z,1.05
2023-06-02T02:23:45.156Z,1.10
2023-06-02T02:26:48.160Z,1.10
2023-06-02T02:29:50.051Z,1.30
2023-06-02T02:32:53.117Z,1.10
2023-06-02T02:35:55.420Z,1.10
2023-06-02T02:38:57.599Z,1.10
2023-06-02T02:41:59.509Z,1.03
2023-06-02T02:45:05.283Z,1.30
2023-06-02T02:48:09.165Z,1.20
2023-06-02T02:51:11.722Z,1.10
2023-06-02T02:54:13.649Z,1.00
2023-06-02T02:57:15.978Z,1.30
2023-06-02T03:00:18.621Z,1.45
2023-06-02T03:03:21.724Z,1.60
2023-06-02T03:06:32.977Z,2.08
2023-06-02T03:09:36.036Z,2.60
2023-06-02T03:12:38.088Z,1.85
2023-06-02T03:15:41.016Z,2.65
2023-06-02T03:18:44.288Z,2.50
2023-06-02T03:21:46.503Z,2.25
2023-06-02T03:24:51.891Z,2.33
2023-06-02T03:27:55.424Z,2.33
2023-06-02T03:30:57.626Z,2.30
2023-06-02T03:34:00.141Z,2.25
2023-06-02T03:37:02.907Z,1.80
2023-06-02T03:40:07.294Z,1.80
2023-06-02T03:43:09.108Z,1.60
2023-06-02T03:46:11.393Z,1.58
2023-06-02T03:49:13.446Z,1.30
2023-06-02T03:52:15.529Z,1.70
2023-06-02T03:55:17.504Z,1.40
2023-06-02T03:58:21.097Z,1.13
2023-06-02T04:01:24.405Z,1.20
2023-06-02T04:04:28.801Z,1.05
2023-06-02T04:07:30.992Z,1.58
2023-06-02T04:10:32.989Z,1.20
2023-06-02T04:13:35.315Z,1.23
2023-06-02T04:16:37.941Z,1.00
2023-06-02T04:19:40.442Z,1.38
2023-06-02T04:22:42.514Z,1.40
2023-06-02T04:25:44.481Z,1.45
2023-06-02T04:28:46.496Z,1.70
2023-06-02T04:31:49.247Z,1.63
2023-06-02T04:35:01.540Z,1.40
2023-06-02T04:41:07.571Z,1.70
2023-06-02T04:44:10.574Z,1.55
2023-06-02T04:47:14.544Z,1.50
2023-06-02T04:53:20.165Z,1.60
2023-06-02T04:56:28.155Z,1.08
2023-06-02T04:59:30.456Z,1.10
2023-06-02T05:05:34.716Z,1.40
2023-06-02T05:11:38.940Z,1.25
2023-06-02T05:14:41.698Z,1.25
2023-06-02T05:17:45.244Z,1.25
2023-06-02T05:20:48.742Z,1.30
2023-06-02T05:26:52.780Z,1.57
2023-06-02T05:29:55.012Z,1.30
2023-06-02T05:32:58.078Z,1.35
2023-06-02T05:36:01.726Z,1.38
2023-06-02T05:39:03.973Z,1.33
2023-06-02T05:45:08.465Z,1.20
2023-06-02T05:48:12.591Z,1.40
2023-06-02T05:51:16.083Z,1.30
2023-06-02T05:54:19.305Z,1.40
2023-06-02T05:57:21.455Z,1.17
2023-06-02T06:00:24.222Z,1.60
2023-06-02T06:03:26.185Z,1.10
2023-06-02T06:06:29.632Z,1.33
2023-06-02T06:09:31.566Z,1.30
2023-06-02T06:12:34.219Z,1.48
2023-06-02T06:15:36.087Z,1.40
2023-06-02T06:18:37.935Z,1.50
2023-06-02T06:21:40.121Z,1.20
2023-06-02T06:24:42.518Z,1.50
2023-06-02T06:27:44.668Z,1.63
2023-06-02T06:30:46.798Z,1.33
2023-06-02T06:33:48.912Z,1.50
2023-06-02T06:39:52.614Z,1.70
2023-06-02T06:42:54.502Z,1.52
2023-06-02T06:46:04.952Z,1.60
2023-06-02T06:49:07.118Z,1.40
2023-06-02T06:55:10.828Z,1.55
2023-06-02T06:58:12.734Z,1.40
2023-06-02T07:04:17.345Z,1.38
2023-06-02T07:07:19.339Z,1.35
2023-06-02T07:13:24.712Z,1.40
2023-06-02T07:16:26.678Z,1.30
2023-06-02T07:19:28.572Z,1.15
2023-06-02T07:25:32.399Z,1.30
2023-06-02T07:31:40.537Z,1.40
2023-06-02T07:34:42.406Z,1.10
2023-06-02T07:40:46.710Z,1.20
2023-06-02T07:43:48.614Z,1.27
2023-06-02T07:46:50.512Z,1.20
2023-06-02T07:49:52.493Z,1.20
2023-06-02T07:52:56.198Z,1.50
2023-06-02T07:55:58.188Z,1.60
2023-06-02T07:59:00.136Z,1.80
2023-06-02T08:02:04.670Z,1.85
2023-06-02T08:05:07.213Z,1.63
2023-06-02T08:08:09.265Z,1.50
2023-06-02T08:11:11.066Z,1.30
2023-06-02T08:14:13.081Z,1.60
2023-06-02T08:17:14.963Z,1.50
2023-06-02T08:20:19.703Z,1.20
2023-06-02T08:23:21.812Z,1.45
2023-06-02T08:26:23.670Z,1.33
2023-06-02T08:29:25.484Z,1.40
2023-06-02T08:32:27.539Z,1.65
2023-06-02T08:35:33.489Z,1.42
2023-06-02T08:38:38.829Z,1.33
2023-06-02T08:41:41.004Z,1.02
2023-06-02T08:44:46.658Z,1.10
2023-06-02T08:47:54.949Z,1.25
2023-06-02T08:50:59.420Z,1.55
2023-06-02T08:54:01.854Z,1.40
2023-06-02T08:57:05.772Z,1.40
2023-06-02T09:00:08.623Z,1.45
2023-06-02T09:03:28.270Z,1.20
2023-06-02T09:06:37.610Z,1.83
2023-06-02T09:09:47.893Z,1.40
2023-06-02T09:12:49.833Z,1.50
2023-06-02T09:16:04.831Z,1.10
2023-06-02T09:19:06.991Z,1.08
2023-06-02T09:22:08.994Z,1.42
2023-06-02T09:25:22.601Z,1.05
2023-06-02T09:28:25.595Z,1.50
2023-06-02T09:31:43.064Z,1.10
2023-06-02T09:34:46.872Z,1.30
2023-06-02T09:37:58.608Z,1.20
2023-06-02T09:41:16.005Z,1.30
2023-06-02T09:44:19.887Z,1.27
2023-06-02T09:47:25.990Z,1.30
2023-06-02T09:50:39.059Z,1.30
2023-06-02T09:53:40.927Z,1.48
2023-06-02T09:56:43.161Z,1.40
2023-06-02T09:59:46.390Z,1.30
2023-06-02T10:02:48.333Z,1.33
2023-06-02T10:06:05.067Z,1.40
2023-06-02T10:09:35.176Z,1.50
2023-06-02T10:13:01.962Z,1.45
2023-06-02T10:16:17.660Z,1.50
2023-06-02T10:19:22.278Z,1.42
2023-06-02T10:22:47.093Z,1.30
2023-06-02T10:26:13.687Z,1.40
2023-06-02T10:29:16.807Z,1.40
2023-06-02T10:32:26.910Z,1.55
2023-06-02T10:36:02.496Z,1.77
2023-06-02T10:39:36.317Z,1.80
2023-06-02T10:42:39.653Z,1.40
2023-06-02T10:45:43.701Z,1.52
2023-06-02T10:48:45.857Z,2.08
2023-06-02T10:52:07.228Z,8.43
2023-06-02T10:55:09.011Z,4.63
2023-06-02T10:58:14.266Z,2.30
2023-06-02T11:01:45.529Z,1.63
2023-06-02T11:04:47.718Z,1.50
2023-06-02T11:08:12.697Z,1.50
2023-06-02T11:11:51.203Z,1.27
2023-06-02T11:15:05.750Z,1.40
2023-06-02T11:18:22.836Z,1.70
2023-06-02T11:21:26.332Z,1.80
2023-06-02T11:24:28.730Z,1.40
2023-06-02T11:27:48.422Z,1.50
2023-06-02T11:31:07.251Z,1.63
2023-06-02T11:34:16.829Z,1.33
2023-06-02T11:37:21.977Z,1.35
2023-06-02T11:40:23.877Z,1.30
2023-06-02T11:43:25.706Z,1.10
2023-06-02T11:46:27.578Z,1.50
2023-06-02T11:49:39.599Z,1.40
2023-06-02T11:52:41.675Z,1.90
2023-06-02T11:55:44.398Z,1.73
2023-06-02T11:58:48.249Z,1.30
2023-06-02T12:01:50.387Z,1.60
2023-06-02T12:04:52.374Z,1.40
2023-06-02T12:07:54.376Z,1.23
2023-06-02T12:10:59.321Z,1.25
2023-06-02T12:14:03.606Z,1.40
2023-06-02T12:17:08.473Z,1.55
2023-06-02T12:20:10.739Z,1.33
2023-06-02T12:23:12.664Z,1.50
2023-06-02T12:26:15.173Z,1.40
2023-06-02T12:29:17.000Z,1.52
2023-06-02T12:32:28.642Z,1.40
2023-06-02T12:35:30.440Z,1.70
2023-06-02T12:38:33.767Z,1.42
2023-06-02T12:41:37.125Z,1.60
2023-06-02T12:44:38.974Z,1.50
2023-06-02T12:47:40.815Z,1.30
2023-06-02T12:50:42.755Z,1.40
2023-06-02T12:53:44.653Z,1.50
2023-06-02T12:56:46.516Z,1.30
2023-06-02T12:59:48.357Z,1.13
2023-06-02T13:02:50.853Z,1.42
2023-06-02T13:06:01.567Z,1.60
2023-06-02T13:09:04.362Z,1.40
2023-06-02T13:12:06.669Z,1.23
2023-06-02T13:15:08.965Z,1.65
2023-06-02T13:18:10.887Z,1.40
2023-06-02T13:21:12.955Z,1.48
2023-06-02T13:24:17.243Z,1.40
2023-06-02T13:27:27.157Z,1.38
2023-06-02T13:30:33.189Z,1.10
2023-06-02T13:33:35.764Z,2.13
2023-06-02T13:36:38.630Z,1.85
2023-06-02T13:39:40.586Z,1.52
2023-06-02T13:42:42.381Z,1.80
2023-06-02T13:45:44.491Z,1.50
2023-06-02T13:48:46.455Z,1.30
2023-06-02T13:51:50.986Z,1.30
2023-06-02T13:54:52.931Z,1.70
2023-06-02T13:57:54.949Z,1.40
2023-06-02T14:00:56.814Z,1.65
2023-06-02T14:03:58.741Z,1.35
2023-06-02T14:07:02.441Z,1.20
2023-06-02T14:10:05.880Z,1.70
2023-06-02T14:13:07.778Z,1.60
2023-06-02T14:16:09.526Z,1.70
2023-06-02T14:19:14.735Z,1.50
2023-06-02T14:22:18.999Z,1.30
2023-06-02T14:25:22.080Z,1.30
2023-06-02T14:28:23.976Z,1.45
2023-06-02T14:31:26.087Z,1.30
2023-06-02T14:34:29.039Z,1.40
2023-06-02T14:37:31.197Z,1.40
2023-06-02T14:40:33.117Z,1.50
2023-06-02T14:43:35.451Z,1.30
2023-06-02T14:46:37.327Z,1.40
2023-06-02T14:49:39.278Z,1.30
2023-06-02T14:52:41.303Z,1.60
2023-06-02T14:55:43.400Z,1.40
2023-06-02T14:58:47.459Z,1.60
2023-06-02T15:01:51.406Z,1.30
2023-06-02T15:04:53.397Z,1.70
2023-06-02T15:07:58.400Z,1.98
2023-06-02T15:11:00.350Z,1.40
2023-06-02T15:14:02.147Z,1.50
2023-06-02T15:17:04.124Z,1.48
2023-06-02T15:20:06.291Z,1.85
2023-06-02T15:23:08.198Z,1.60
2023-06-02T15:26:10.170Z,1.55
2023-06-02T15:29:11.983Z,1.73
2023-06-02T15:32:13.862Z,1.50
2023-06-02T15:35:16.487Z,1.75
2023-06-02T15:38:18.348Z,1.50
2023-06-02T15:41:20.254Z,1.65
2023-06-02T15:44:22.212Z,1.83
2023-06-02T15:47:24.250Z,2.10
2023-06-02T15:50:26.909Z,1.88
2023-06-02T15:53:28.811Z,1.80
2023-06-02T15:56:31.200Z,1.83
2023-06-02T15:59:33.074Z,2.10
2023-06-02T16:02:34.940Z,2.00
2023-06-02T16:05:37.754Z,2.00
2023-06-02T16:08:39.992Z,1.77
2023-06-02T16:11:43.545Z,1.92
2023-06-02T16:14:45.585Z,1.70
2023-06-02T16:17:47.627Z,1.63
2023-06-02T16:20:49.572Z,2.00
2023-06-02T16:23:51.830Z,1.65
2023-06-02T16:26:53.669Z,1.80
2023-06-02T16:32:57.487Z,2.15
2023-06-02T16:35:59.364Z,1.98
2023-06-02T16:42:03.109Z,2.08
2023-06-02T16:48:06.973Z,1.77
2023-06-02T16:51:08.840Z,1.85
2023-06-02T16:57:13.604Z,2.03
2023-06-02T17:03:17.899Z,1.95
2023-06-02T17:06:19.776Z,1.83
2023-06-02T17:09:22.006Z,1.98
2023-06-02T17:12:23.774Z,1.60
2023-06-02T17:15:25.584Z,1.70
2023-06-02T17:18:27.459Z,1.90
2023-06-02T17:24:31.169Z,2.00
2023-06-02T17:27:33.112Z,2.10
2023-06-02T17:33:36.777Z,2.40
2023-06-02T17:36:38.853Z,2.08
2023-06-02T17:42:43.264Z,1.80
2023-06-02T17:45:45.088Z,1.90
2023-06-02T17:48:46.992Z,2.05
2023-06-02T17:51:49.561Z,2.03
2023-06-02T17:54:52.683Z,2.15
2023-06-02T17:57:54.862Z,1.95
2023-06-02T18:00:56.822Z,2.03
2023-06-02T18:03:58.765Z,1.92
2023-06-02T18:07:01.800Z,1.90
2023-06-02T18:10:03.902Z,1.67
2023-06-02T18:13:05.847Z,1.90
2023-06-02T18:16:08.158Z,2.13
2023-06-02T18:19:09.957Z,1.85
2023-06-02T18:22:11.862Z,1.70
2023-06-02T18:25:14.550Z,1.90
2023-06-02T18:28:16.968Z,1.70
2023-06-02T18:31:18.980Z,1.60
2023-06-02T18:34:20.990Z,1.83
2023-06-02T18:37:22.840Z,1.60
2023-06-02T18:40:24.682Z,1.50
2023-06-02T18:43:26.856Z,1.73
2023-06-02T18:49:30.968Z,1.98
2023-06-02T18:52:35.360Z,1.77
2023-06-02T18:55:37.260Z,1.58
2023-06-02T18:58:39.184Z,1.83
2023-06-02T19:01:42.429Z,1.80
2023-06-02T19:04:44.314Z,1.58
2023-06-02T19:07:46.181Z,1.80
2023-06-02T19:10:48.898Z,1.75
2023-06-02T19:13:50.916Z,1.50
2023-06-02T19:16:52.913Z,1.67
2023-06-02T19:19:54.690Z,1.60
2023-06-02T19:22:56.570Z,1.17
2023-06-02T19:25:58.421Z,1.60
2023-06-02T19:29:00.429Z,1.70
2023-06-02T19:32:02.702Z,1.67
2023-06-02T19:35:04.897Z,1.40
2023-06-02T19:38:06.741Z,1.45
2023-06-02T19:41:08.789Z,1.50
2023-06-02T19:44:10.797Z,1.50
2023-06-02T19:47:12.693Z,1.60
2023-06-02T19:50:16.530Z,1.50
2023-06-02T19:53:20.275Z,1.10
2023-06-02T19:56:22.448Z,1.40
2023-06-02T19:59:24.370Z,1.45
2023-06-02T20:02:26.338Z,1.40
2023-06-02T20:05:28.255Z,1.35
2023-06-02T20:08:30.176Z,1.30
2023-06-02T20:11:32.159Z,1.40
2023-06-02T20:14:34.130Z,1.38
2023-06-02T20:17:36.878Z,1.60
2023-06-02T20:20:39.318Z,1.40
2023-06-02T20:26:44.649Z,1.30
2023-06-02T20:29:46.589Z,1.60
2023-06-02T20:32:48.578Z,1.50
2023-06-02T20:35:50.586Z,1.50
2023-06-02T20:38:52.466Z,1.23
2023-06-02T20:41:54.875Z,1.50
2023-06-02T20:47:59.418Z,1.50
2023-06-02T20:51:01.484Z,1.58
2023-06-02T20:54:04.221Z,1.40
2023-06-02T20:57:06.623Z,1.58
2023-06-02T21:03:11.918Z,1.60
2023-06-02T21:06:13.899Z,1.40
2023-06-02T21:09:15.755Z,1.20
2023-06-02T21:12:17.600Z,1.30
2023-06-02T21:15:19.764Z,1.30
2023-06-02T21:18:21.667Z,1.50
2023-06-02T21:21:24.003Z,1.50
2023-06-02T21:24:25.894Z,1.30
2023-06-02T21:27:27.713Z,1.50
2023-06-02T21:30:29.624Z,1.55
2023-06-02T21:33:31.545Z,1.52
2023-06-02T21:36:33.509Z,1.52
2023-06-02T21:39:35.459Z,1.60
2023-06-02T21:42:38.287Z,1.30
2023-06-02T21:45:40.137Z,1.60
2023-06-02T21:48:42.063Z,1.55
2023-06-02T21:51:44.137Z,1.40
2023-06-02T21:54:45.935Z,1.63
2023-06-02T21:57:47.771Z,1.75
2023-06-02T22:00:49.758Z,1.88
2023-06-02T22:03:51.700Z,1.63
2023-06-02T22:06:53.655Z,1.77
2023-06-02T22:09:56.262Z,1.75
2023-06-02T22:12:58.170Z,1.77
2023-06-02T22:15:59.973Z,1.98
2023-06-02T22:19:04.407Z,1.52
2023-06-02T22:22:07.021Z,1.55
2023-06-02T22:25:08.998Z,2.17
2023-06-02T22:28:11.550Z,2.00
2023-06-02T22:31:13.796Z,2.03
2023-06-02T22:34:17.461Z,1.85
2023-06-02T22:37:20.251Z,2.05
2023-06-02T22:40:22.160Z,1.98
2023-06-02T22:43:24.040Z,1.90
2023-06-02T22:46:26.001Z,2.13
2023-06-02T22:49:27.929Z,2.65
2023-06-02T22:52:29.834Z,2.20
2023-06-02T22:55:32.520Z,2.25
2023-06-02T22:58:34.527Z,2.58
2023-06-02T23:01:36.488Z,2.78
2023-06-02T23:04:38.404Z,2.38
2023-06-02T23:07:40.388Z,2.60
2023-06-02T23:10:42.260Z,2.38
2023-06-02T23:13:44.645Z,2.42
2023-06-02T23:16:48.492Z,2.50
2023-06-02T23:19:50.468Z,2.40
2023-06-02T23:22:54.189Z,2.40
2023-06-02T23:25:59.776Z,2.60
2023-06-02T23:29:01.739Z,2.58
2023-06-02T23:32:03.668Z,2.50
2023-06-02T23:35:06.210Z,2.67
2023-06-02T23:38:08.255Z,2.30
2023-06-02T23:41:10.082Z,2.33
2023-06-02T23:44:11.945Z,2.47
2023-06-02T23:47:18.060Z,2.50
2023-06-02T23:50:20.038Z,2.50
2023-06-02T23:53:21.841Z,2.67
2023-06-02T23:56:23.786Z,2.60
2023-06-02T23:59:25.578Z,2.45
